»·PEaware :: N2102W KCRQ-KSBD

N2102W :: KCRQ-KSBD

FLIGHT INFORMATION

Flight Status: Arrived
Operator: Privately registered:
United States
More flights under this callsign
Pilot: Eric G. (5941)
Aircraft: Cessna 700 Citation Longitude
(C700)
More flights by this aircraft type
Origin: KCRQ McClellan-Palomar
United States
Destination: KSBD San Bernardino Intl
United States
More flights between these airports :: More routes between these airports
Route: V186 TANNR HDF PETIS
File this flight plan on PilotEdge
Remarks:
Altitude:
(Current/Filed)
10,000ft
Speed:
(Current/Filed)
325kts
Departed: 11-Sep-22 10:01 AM
Arrived: 11-Sep-22 10:27 AM
Distance/Time
Traveled:
58nm/0:26
Distance/Time
To Go:
Arrived

Flight Plot

Page will automatically refresh every two minutes.


Map Options




Map Legend


Flown Route
Filed Route
Departure Airport
Arrival Airport
Navaid (VOR, NDB)
Fix

Horizontal Profiles

Position Reports

Time Latitude Longitude Heading Altitude Ground
Speed
11-Sep-22 09:39 33.127317 -117.279047 93 330ft 0kts
11-Sep-22 09:40 33.127317 -117.279047 93 330ft 0kts
11-Sep-22 09:41 33.127317 -117.279047 93 330ft 0kts
11-Sep-22 09:42 33.127317 -117.279047 93 330ft 0kts
11-Sep-22 09:43 33.127317 -117.279047 93 330ft 0kts
11-Sep-22 09:44 33.127317 -117.279047 93 330ft 0kts
11-Sep-22 09:45 33.127317 -117.279047 93 330ft 0kts
11-Sep-22 09:46 33.127317 -117.279047 93 330ft 0kts
11-Sep-22 09:47 33.127317 -117.279047 93 330ft 0kts
11-Sep-22 09:48 33.127317 -117.279047 93 330ft 0kts
11-Sep-22 09:49 33.127317 -117.279047 93 330ft 0kts
11-Sep-22 09:50 33.127317 -117.279047 93 330ft 0kts
11-Sep-22 09:51 33.127317 -117.279047 93 330ft 0kts
11-Sep-22 09:52 33.127317 -117.279047 93 330ft 0kts
11-Sep-22 09:53 33.127317 -117.279047 93 330ft 0kts
11-Sep-22 09:54 33.127317 -117.279047 93 330ft 0kts
11-Sep-22 09:55 33.127317 -117.279047 93 330ft 0kts
11-Sep-22 09:56 33.127399 -117.278850 39 329ft 7kts
11-Sep-22 09:57 33.128303 -117.274775 77 329ft 13kts
11-Sep-22 09:58 33.128603 -117.272888 57 329ft 0kts
11-Sep-22 09:59 33.128738 -117.272669 47 327ft 9kts
11-Sep-22 10:00 33.129237 -117.274237 258 328ft 66kts
11-Sep-22 10:01 33.118776 -117.337539 255 2894ft 241kts
11-Sep-22 10:02 33.073602 -117.371138 145 5390ft 227kts
11-Sep-22 10:03 33.073665 -117.298728 75 7706ft 251kts
11-Sep-22 10:04 33.102204 -117.221042 69 9697ft 275kts
11-Sep-22 10:05 33.138104 -117.132654 68 9972ft 302kts
11-Sep-22 10:06 33.173057 -117.045545 68 9994ft 283kts
11-Sep-22 10:07 33.206234 -116.962130 69 9973ft 273kts
11-Sep-22 10:08 33.237795 -116.880832 69 9981ft 268kts
11-Sep-22 10:09 33.297044 -116.851667 326 10019ft 276kts
11-Sep-22 10:10 33.338074 -116.928650 302 10048ft 295kts
11-Sep-22 10:11 33.391661 -117.012364 318 9982ft 338kts
11-Sep-22 10:12 33.475529 -117.068072 341 9994ft 356kts
11-Sep-22 10:13 33.568100 -117.104149 343 10008ft 341kts
11-Sep-22 10:14 33.655557 -117.137793 343 10009ft 309kts
11-Sep-22 10:15 33.720862 -117.163598 343 7551ft 216kts
11-Sep-22 10:16 33.774265 -117.198010 312 6054ft 222kts
11-Sep-22 10:17 33.816217 -117.256098 310 5969ft 236kts
11-Sep-22 10:18 33.859064 -117.317169 310 5109ft 254kts
11-Sep-22 10:19 33.904444 -117.382640 310 4055ft 219kts
11-Sep-22 10:20 33.940810 -117.435000 310 3993ft 200kts
11-Sep-22 10:21 33.988861 -117.456875 35 4104ft 212kts
11-Sep-22 10:22 34.038827 -117.426795 46 4035ft 188kts
11-Sep-22 10:23 34.056096 -117.368007 68 3581ft 193kts
11-Sep-22 10:24 34.071818 -117.313740 70 2342ft 118kts
11-Sep-22 10:25 34.084395 -117.272082 70 1680ft 129kts
11-Sep-22 10:26 34.093271 -117.242270 36 1106ft 9kts
11-Sep-22 10:27 34.095520 -117.242116 2 1103ft 7kts
11-Sep-22 10:28 34.095746 -117.242300 200 1102ft 0kts
11-Sep-22 10:29 34.095746 -117.242300 200 1102ft 0kts
11-Sep-22 10:30 34.095746 -117.242300 200 1102ft 0kts

Navigation Log

Ident Type
Flight plan parsing failed, navigation log unavailable